Aviation Digital Data Service (ADDS)

Output produced by METARs form (0911 UTC 19 April 2019)
found at http://www.aviationweather.gov/metar/data/
 
Forecast for: SVMI (CARACAS/S. BOLIV, VE)
Text: TAF SVMI 190400Z 1906/2006 07009KT 9000 DZ SCT016 BKN300 TX25/1912Z TN21/1906Z
Forecast period: 0600 UTC 19 April 2019 to 0600 UTC 20 April 2019
Forecast type: FROM: standard forecast or significant change
Winds: from the ENE (70 degrees) at 10 MPH (9 knots; 4.6 m/s)
Visibility: 6 miles (9 km)
Ceiling: 30000 feet AGL
Clouds: scattered clouds at 1600 feet AGL
broken clouds at 30000 feet AGL
Weather: DZ  (moderate drizzle)
Text: TEMPO 1906/1910 06012KT 9000 DZ OVC016
Forecast period: 0600 to 1000 UTC 19 April 2019
Forecast type: TEMPORARY: The following changes expected for less than half the time period
Winds: from the ENE (60 degrees) at 14 MPH (12 knots; 6.2 m/s)
Visibility: 6 miles (9 km)
Ceiling: 1600 feet AGL
Clouds: overcast cloud deck at 1600 feet AGL
Weather: DZ  (moderate drizzle)